Burns Flat, Oklahoma
Current Conditions -  °F | °C
As of 6:53 AM on Saturday 20 Dec 2014 (Local Time) from KCSM Reporting Station
Haze Haze  
Wind Chill: 38°   Ceiling: 1100
Heat Index: 42°   Visibility: 6mi
Dew Point: 38°   Wind: 6mph
Humidity: 85%   Direction: 190°S
Pressure: 30.18"   Gusts: NA
Location:  35.35°N, 99.17°W
Report Text: KCSM 201253Z AUTO 19005KT 6SM BR OVC011 06/03 A3018 RMK AO2 SLP223 T00560033
Loading
Personal Weather Stations






























Interactive Weather Map New forecast layout! Learn more

10-Day Weather Forecast

Advertisements
Track Severe Weather on mobile